createdAt,value
2022-08-25T00:00:32.215Z,98761.72
2022-08-25T00:02:59.290Z,98757.41
2022-08-25T00:05:29.210Z,98757.94
2022-08-25T00:07:59.294Z,98750.69
2022-08-25T00:10:26.436Z,98748.84
2022-08-25T00:12:53.498Z,98750.00
2022-08-25T00:15:22.700Z,98740.28
2022-08-25T00:17:49.758Z,98749.84
2022-08-25T00:20:16.800Z,98746.38
2022-08-25T00:22:43.890Z,98742.91
2022-08-25T00:25:11.455Z,98749.00
2022-08-25T00:27:38.554Z,98749.19
2022-08-25T00:30:05.940Z,98739.44
2022-08-25T00:32:32.988Z,98738.63
2022-08-25T00:35:00.819Z,98739.78
2022-08-25T00:37:27.943Z,98737.16
2022-08-25T00:39:57.142Z,98739.78
2022-08-25T00:42:24.267Z,98733.69
2022-08-25T00:44:51.357Z,98731.38
2022-08-25T00:47:18.399Z,98737.66
2022-08-25T00:49:45.458Z,98740.31
2022-08-25T00:52:12.495Z,98745.56
2022-08-25T00:54:39.518Z,98748.22
2022-08-25T00:57:06.560Z,98742.75
2022-08-25T00:59:33.628Z,98744.94
2022-08-25T01:02:00.658Z,98737.66
2022-08-25T01:04:27.696Z,98738.81
2022-08-25T01:06:55.497Z,98740.63
2022-08-25T01:09:22.588Z,98745.09
2022-08-25T01:11:49.630Z,98740.31
2022-08-25T01:14:16.676Z,98734.38
2022-08-25T01:16:43.922Z,98733.22
2022-08-25T01:19:15.196Z,98727.44
2022-08-25T01:21:42.647Z,98728.63
2022-08-25T01:24:09.687Z,98724.34
2022-08-25T01:26:36.743Z,98729.47
2022-08-25T01:29:22.233Z,98739.34
2022-08-25T01:31:49.360Z,98735.38
2022-08-25T01:34:16.433Z,98727.78
2022-08-25T01:36:43.491Z,98729.59
2022-08-25T01:39:10.539Z,98729.47
2022-08-25T01:41:37.599Z,98728.63
2022-08-25T01:44:12.387Z,98725.00
2022-08-25T01:46:43.778Z,98720.06
2022-08-25T01:49:10.819Z,98713.28
2022-08-25T01:51:37.858Z,98715.78
2022-08-25T01:54:04.895Z,98713.63
2022-08-25T01:56:31.936Z,98715.28
2022-08-25T01:58:58.974Z,98711.63
2022-08-25T02:01:26.396Z,98718.25
2022-08-25T02:03:53.475Z,98719.88
2022-08-25T02:06:20.562Z,98726.34
2022-08-25T02:08:56.270Z,98725.84
2022-08-25T02:11:24.256Z,98725.50
2022-08-25T02:13:52.458Z,98726.19
2022-08-25T02:16:20.680Z,98728.97
2022-08-25T02:18:47.805Z,98730.63
2022-08-25T02:21:14.859Z,98724.88
2022-08-25T02:23:41.997Z,98724.53
2022-08-25T02:26:09.045Z,98723.53
2022-08-25T02:28:37.355Z,98723.03
2022-08-25T02:31:04.492Z,98727.63
2022-08-25T02:33:31.589Z,98720.38
2022-08-25T02:35:58.631Z,98713.47
2022-08-25T02:38:27.991Z,98712.00
2022-08-25T02:40:55.076Z,98712.53
2022-08-25T02:43:22.173Z,98704.63
2022-08-25T02:45:49.362Z,98703.66
2022-08-25T02:48:16.474Z,98700.81
2022-08-25T02:50:43.826Z,98695.03
2022-08-25T02:53:10.857Z,98692.09
2022-08-25T02:55:37.963Z,98698.66
2022-08-25T02:58:05.151Z,98699.50
2022-08-25T03:00:32.319Z,98694.25
2022-08-25T03:03:00.906Z,98694.56
2022-08-25T03:05:27.970Z,98694.88
2022-08-25T03:07:55.014Z,98697.69
2022-08-25T03:10:22.065Z,98700.97
2022-08-25T03:12:49.115Z,98697.84
2022-08-25T03:15:19.226Z,98689.31
2022-08-25T03:17:46.358Z,98692.91
2022-08-25T03:20:14.354Z,98692.09
2022-08-25T03:22:41.423Z,98691.44
2022-08-25T03:25:27.279Z,98699.50
2022-08-25T03:27:54.350Z,98692.59
2022-08-25T03:30:21.554Z,98702.31
2022-08-25T03:32:48.622Z,98698.19
2022-08-25T03:35:15.671Z,98699.19
2022-08-25T03:37:42.708Z,98704.28
2022-08-25T03:40:09.813Z,98700.31
2022-08-25T03:42:44.992Z,98699.81
2022-08-25T03:45:12.540Z,98702.31
2022-08-25T03:47:40.328Z,98705.09
2022-08-25T03:50:07.374Z,98700.81
2022-08-25T03:52:36.937Z,98695.72
2022-08-25T03:55:06.026Z,98687.97
2022-08-25T03:57:33.065Z,98688.13
2022-08-25T04:00:00.189Z,98691.91
2022-08-25T04:02:27.505Z,98694.56
2022-08-25T04:04:54.616Z,98687.63
2022-08-25T04:07:22.700Z,98687.78
2022-08-25T04:09:49.754Z,98685.31
2022-08-25T04:12:16.786Z,98676.59
2022-08-25T04:14:46.009Z,98674.78
2022-08-25T04:17:13.053Z,98675.09
2022-08-25T04:19:40.123Z,98676.09
2022-08-25T04:22:07.183Z,98673.47
2022-08-25T04:24:34.230Z,98680.38
2022-08-25T04:27:01.288Z,98677.75
2022-08-25T04:29:28.330Z,98683.34
2022-08-25T04:31:55.466Z,98679.72
2022-08-25T04:34:30.501Z,98676.44
2022-08-25T04:36:58.382Z,98677.25
2022-08-25T04:39:25.427Z,98681.88
2022-08-25T04:41:52.565Z,98688.78
2022-08-25T04:44:19.610Z,98694.06
2022-08-25T04:46:46.710Z,98694.88
2022-08-25T04:49:13.753Z,98689.59
2022-08-25T04:51:40.901Z,98692.56
2022-08-25T04:54:08.137Z,98688.09
2022-08-25T04:56:35.194Z,98697.00
2022-08-25T04:59:02.652Z,98695.38
2022-08-25T05:01:37.776Z,98697.19
2022-08-25T05:04:04.885Z,98698.81
2022-08-25T05:06:31.967Z,98704.41
2022-08-25T05:08:59.038Z,98697.50
2022-08-25T05:11:26.074Z,98702.59
2022-08-25T05:13:53.133Z,98702.78
2022-08-25T05:16:20.269Z,98696.50
2022-08-25T05:18:47.332Z,98698.16
2022-08-25T05:21:14.451Z,98683.47
2022-08-25T05:23:41.543Z,98682.50
2022-08-25T05:26:08.590Z,98673.94
2022-08-25T05:28:35.826Z,98675.72
2022-08-25T05:31:02.947Z,98679.19
2022-08-25T05:33:31.386Z,98677.38
2022-08-25T05:35:59.958Z,98686.25
2022-08-25T05:38:27.017Z,98677.72
2022-08-25T05:40:54.214Z,98673.94
2022-08-25T05:43:21.315Z,98673.09
2022-08-25T05:45:48.428Z,98684.63
2022-08-25T05:48:15.641Z,98680.47
2022-08-25T05:50:43.098Z,98681.34
2022-08-25T05:53:10.198Z,98674.25
2022-08-25T05:55:37.248Z,98669.94
2022-08-25T05:58:04.523Z,98678.84
2022-08-25T06:00:31.666Z,98675.22
2022-08-25T06:02:58.706Z,98679.53
2022-08-25T06:05:25.762Z,98676.06
2022-08-25T06:07:52.921Z,98669.13
2022-08-25T06:10:20.267Z,98680.66
2022-08-25T06:12:47.533Z,98676.06
2022-08-25T06:15:14.677Z,98670.13
2022-08-25T06:17:43.041Z,98671.94
2022-08-25T06:20:10.083Z,98669.31
2022-08-25T06:22:37.720Z,98675.56
2022-08-25T06:25:04.781Z,98675.72
2022-08-25T06:27:31.826Z,98680.66
2022-08-25T06:29:58.898Z,98680.47
2022-08-25T06:32:35.926Z,98677.34
2022-08-25T06:35:02.974Z,98674.72
2022-08-25T06:37:30.018Z,98672.94
2022-08-25T06:39:57.102Z,98662.41
2022-08-25T06:42:24.202Z,98662.22
2022-08-25T06:44:51.255Z,98667.66
2022-08-25T06:47:18.578Z,98662.53
2022-08-25T06:49:45.655Z,98662.53
2022-08-25T06:52:12.739Z,98665.16
2022-08-25T06:54:39.776Z,98664.34
2022-08-25T06:57:07.005Z,98664.53
2022-08-25T06:59:34.426Z,98655.63
2022-08-25T07:02:03.142Z,98650.19
2022-08-25T07:04:30.727Z,98651.00
2022-08-25T07:06:57.791Z,98651.84
2022-08-25T07:09:24.834Z,98650.38
2022-08-25T07:11:52.449Z,98650.88
2022-08-25T07:14:19.595Z,98649.88
2022-08-25T07:16:49.641Z,98642.78
2022-08-25T07:19:20.925Z,98642.63
2022-08-25T07:21:48.636Z,98642.47
2022-08-25T07:24:16.509Z,98637.88
2022-08-25T07:26:43.699Z,98634.28
2022-08-25T07:29:10.851Z,98632.28
2022-08-25T07:31:38.157Z,98624.22
2022-08-25T07:34:23.853Z,98633.78
2022-08-25T07:36:52.736Z,98636.09
2022-08-25T07:42:12.097Z,98636.91
2022-08-25T07:44:39.362Z,98633.28
2022-08-25T07:47:07.492Z,98639.22
2022-08-25T07:49:36.227Z,98634.75
2022-08-25T07:52:07.086Z,98641.66
2022-08-25T07:54:38.180Z,98645.97
2022-08-25T07:57:05.562Z,98639.72
2022-08-25T07:59:39.403Z,98642.84
2022-08-25T08:02:06.875Z,98642.84
2022-08-25T08:04:34.136Z,98650.56
2022-08-25T08:07:01.381Z,98646.13
2022-08-25T08:09:31.078Z,98646.97
2022-08-25T08:11:58.143Z,98638.88
2022-08-25T08:14:25.251Z,98640.53
2022-08-25T08:16:53.967Z,98642.16
2022-08-25T08:19:23.030Z,98643.84
2022-08-25T08:21:51.417Z,98636.06
2022-08-25T08:24:40.658Z,98634.25
2022-08-25T08:27:07.495Z,98625.19
2022-08-25T08:29:34.545Z,98626.03
2022-08-25T08:32:03.272Z,98627.69
2022-08-25T08:34:30.410Z,98630.97
2022-08-25T08:36:57.493Z,98626.53
2022-08-25T08:39:24.529Z,98631.78
2022-08-25T08:42:11.563Z,98622.06
2022-08-25T08:44:39.302Z,98622.88
2022-08-25T08:47:08.853Z,98620.75
2022-08-25T08:49:36.254Z,98617.13
2022-08-25T08:52:04.189Z,98617.13
2022-08-25T08:54:31.243Z,98606.75
2022-08-25T08:57:01.175Z,98600.81
2022-08-25T08:59:30.033Z,98595.88
2022-08-25T09:02:00.383Z,98608.22
2022-08-25T09:04:27.995Z,98607.22
2022-08-25T09:06:55.246Z,98612.34
2022-08-25T09:09:22.333Z,98614.16
2022-08-25T09:11:49.370Z,98613.19
2022-08-25T09:14:16.403Z,98615.81
2022-08-25T09:16:55.615Z,98614.16
2022-08-25T09:19:23.522Z,98610.53
2022-08-25T09:21:50.862Z,98614.00
2022-08-25T09:24:17.918Z,98605.22
2022-08-25T09:26:45.838Z,98606.88
2022-08-25T09:29:16.638Z,98605.19
2022-08-25T09:31:44.233Z,98601.09
2022-08-25T09:34:11.763Z,98598.09
2022-08-25T09:36:39.670Z,98587.22
2022-08-25T09:39:06.767Z,98586.22
2022-08-25T09:41:34.275Z,98590.34
2022-08-25T09:44:02.857Z,98598.03
2022-08-25T09:46:30.470Z,98594.06
2022-08-25T09:48:57.841Z,98588.63
2022-08-25T09:51:24.910Z,98586.00
2022-08-25T09:53:51.969Z,98578.72
2022-08-25T09:56:19.009Z,98581.00
2022-08-25T09:58:46.078Z,98575.38
2022-08-25T10:01:13.605Z,98572.41
2022-08-25T10:03:40.960Z,98567.13
2022-08-25T10:06:13.353Z,98568.47
2022-08-25T10:08:40.823Z,98559.38
2022-08-25T10:11:09.051Z,98559.03
2022-08-25T10:13:36.166Z,98555.38
2022-08-25T10:16:03.289Z,98553.22
2022-08-25T10:18:30.765Z,98542.31
2022-08-25T10:20:59.343Z,98536.22
2022-08-25T10:23:26.504Z,98534.13
2022-08-25T10:25:59.356Z,98530.47
2022-08-25T10:28:30.171Z,98534.94
2022-08-25T10:30:57.339Z,98531.28
2022-08-25T10:33:24.432Z,98530.75
2022-08-25T10:35:51.514Z,98527.66
2022-08-25T10:38:21.680Z,98521.69
2022-08-25T10:40:49.766Z,98519.22
2022-08-25T10:43:16.803Z,98513.94
2022-08-25T10:45:47.819Z,98506.19
2022-08-25T10:48:15.278Z,98502.72
2022-08-25T10:50:45.466Z,98500.28
2022-08-25T10:53:16.042Z,98500.44
2022-08-25T10:55:44.073Z,98501.25
2022-08-25T10:58:11.121Z,98498.28
2022-08-25T11:00:41.698Z,98496.09
2022-08-25T11:03:15.423Z,98492.28
2022-08-25T11:05:42.609Z,98482.03
2022-08-25T11:08:10.092Z,98486.47
2022-08-25T11:10:38.616Z,98483.66
2022-08-25T11:13:06.136Z,98487.13
2022-08-25T11:15:39.722Z,98488.78
2022-08-25T11:18:17.309Z,98486.78
2022-08-25T11:20:44.343Z,98477.25
2022-08-25T11:23:11.469Z,98484.00
2022-08-25T11:25:38.628Z,98481.34
2022-08-25T11:28:06.170Z,98471.63
2022-08-25T11:30:33.361Z,98471.81
2022-08-25T11:33:00.815Z,98470.97
2022-08-25T11:35:28.795Z,98471.31
2022-08-25T11:37:56.489Z,98474.75
